Hopkinton, New Hampshire
Current Conditions -  °F | °C
As of 10:51 AM on Friday 24 Oct 2014 (Local Time) from KCON Reporting Station
Overcast Overcast  
Wind Chill: 44°   Ceiling: 2800
Heat Index: 49°   Visibility: 10mi
Dew Point: 44°   Wind: 13mph
Humidity: 83%   Direction: 310°NW
Pressure: 29.72"   Gusts: NA
Location:  43.2205°N, 71.6996°W
Report Text: KCON 241451Z AUTO 31011KT 10SM OVC028 09/07 A2972 RMK AO2 SLP067 60000 T00940067 50000
Loading
Personal Weather Stations






























Interactive Weather Map
Tropical Storm Tracking
New forecast layout! Learn more

10-Day Weather Forecast

Advertisements
Track Severe Weather on mobile